sensor_id;sensor_type;location;lat;lon;timestamp;temperature;humidity
80234;DHT22;69712;42.142;24.766;2024-02-26T00:01:43;12.70;72.50
80234;DHT22;69712;42.142;24.766;2024-02-26T00:04:09;12.60;73.10
80234;DHT22;69712;42.142;24.766;2024-02-26T00:06:35;12.70;72.90
80234;DHT22;69712;42.142;24.766;2024-02-26T00:09:02;12.80;72.10
80234;DHT22;69712;42.142;24.766;2024-02-26T00:11:31;12.90;71.80
80234;DHT22;69712;42.142;24.766;2024-02-26T00:13:57;13.00;71.20
80234;DHT22;69712;42.142;24.766;2024-02-26T00:16:23;12.60;72.50
80234;DHT22;69712;42.142;24.766;2024-02-26T00:18:49;12.70;72.50
80234;DHT22;69712;42.142;24.766;2024-02-26T00:21:15;12.70;72.10
80234;DHT22;69712;42.142;24.766;2024-02-26T00:23:41;12.70;72.80
80234;DHT22;69712;42.142;24.766;2024-02-26T00:26:06;12.70;73.10
80234;DHT22;69712;42.142;24.766;2024-02-26T00:28:33;12.80;72.00
80234;DHT22;69712;42.142;24.766;2024-02-26T00:30:59;13.00;71.00
80234;DHT22;69712;42.142;24.766;2024-02-26T00:33:25;13.10;70.20
80234;DHT22;69712;42.142;24.766;2024-02-26T00:35:51;12.80;71.20
80234;DHT22;69712;42.142;24.766;2024-02-26T00:38:16;12.40;73.20
80234;DHT22;69712;42.142;24.766;2024-02-26T00:40:42;12.30;74.10
80234;DHT22;69712;42.142;24.766;2024-02-26T00:43:08;12.30;74.50
80234;DHT22;69712;42.142;24.766;2024-02-26T00:45:34;12.50;73.60
80234;DHT22;69712;42.142;24.766;2024-02-26T00:48:00;12.70;72.80
80234;DHT22;69712;42.142;24.766;2024-02-26T00:50:34;12.80;72.20
80234;DHT22;69712;42.142;24.766;2024-02-26T00:53:01;12.80;71.60
80234;DHT22;69712;42.142;24.766;2024-02-26T00:55:26;12.80;71.40
80234;DHT22;69712;42.142;24.766;2024-02-26T00:57:52;12.40;73.70
80234;DHT22;69712;42.142;24.766;2024-02-26T01:00:18;12.30;74.10
80234;DHT22;69712;42.142;24.766;2024-02-26T01:02:44;12.50;73.80
80234;DHT22;69712;42.142;24.766;2024-02-26T01:05:13;12.60;73.70
80234;DHT22;69712;42.142;24.766;2024-02-26T01:07:39;12.70;73.10
80234;DHT22;69712;42.142;24.766;2024-02-26T01:10:08;12.60;72.60
80234;DHT22;69712;42.142;24.766;2024-02-26T01:12:34;12.50;73.90
80234;DHT22;69712;42.142;24.766;2024-02-26T01:15:01;12.40;74.20
80234;DHT22;69712;42.142;24.766;2024-02-26T01:17:27;12.40;73.80
80234;DHT22;69712;42.142;24.766;2024-02-26T01:19:52;11.90;76.10
80234;DHT22;69712;42.142;24.766;2024-02-26T01:22:19;11.80;77.20
80234;DHT22;69712;42.142;24.766;2024-02-26T01:24:45;11.70;77.80
80234;DHT22;69712;42.142;24.766;2024-02-26T01:27:11;11.80;78.10
80234;DHT22;69712;42.142;24.766;2024-02-26T01:29:37;11.70;78.10
80234;DHT22;69712;42.142;24.766;2024-02-26T01:32:03;11.90;77.60
80234;DHT22;69712;42.142;24.766;2024-02-26T01:34:30;12.10;77.10
80234;DHT22;69712;42.142;24.766;2024-02-26T01:36:56;12.20;76.50
80234;DHT22;69712;42.142;24.766;2024-02-26T01:39:22;12.10;76.80
80234;DHT22;69712;42.142;24.766;2024-02-26T01:41:47;12.00;77.40
80234;DHT22;69712;42.142;24.766;2024-02-26T01:44:13;12.10;76.80
80234;DHT22;69712;42.142;24.766;2024-02-26T01:46:39;12.40;75.60
80234;DHT22;69712;42.142;24.766;2024-02-26T01:49:06;12.50;74.60
80234;DHT22;69712;42.142;24.766;2024-02-26T01:51:35;12.70;73.40
80234;DHT22;69712;42.142;24.766;2024-02-26T01:54:02;12.50;74.20
80234;DHT22;69712;42.142;24.766;2024-02-26T01:56:29;12.30;75.30
80234;DHT22;69712;42.142;24.766;2024-02-26T01:58:59;12.50;74.90
80234;DHT22;69712;42.142;24.766;2024-02-26T02:01:27;12.60;73.70
80234;DHT22;69712;42.142;24.766;2024-02-26T02:03:54;12.70;73.00
80234;DHT22;69712;42.142;24.766;2024-02-26T02:06:21;12.60;73.00
80234;DHT22;69712;42.142;24.766;2024-02-26T02:08:48;12.50;73.60
80234;DHT22;69712;42.142;24.766;2024-02-26T02:11:14;12.30;74.30
80234;DHT22;69712;42.142;24.766;2024-02-26T02:13:40;12.20;75.10
80234;DHT22;69712;42.142;24.766;2024-02-26T02:16:07;12.20;75.00
80234;DHT22;69712;42.142;24.766;2024-02-26T02:18:33;12.30;74.80
80234;DHT22;69712;42.142;24.766;2024-02-26T02:21:02;12.30;74.90
80234;DHT22;69712;42.142;24.766;2024-02-26T02:23:28;12.50;74.00
80234;DHT22;69712;42.142;24.766;2024-02-26T02:25:54;12.50;73.60
80234;DHT22;69712;42.142;24.766;2024-02-26T02:28:22;12.50;73.60
80234;DHT22;69712;42.142;24.766;2024-02-26T02:30:48;12.60;73.20
80234;DHT22;69712;42.142;24.766;2024-02-26T02:33:15;12.60;73.10
80234;DHT22;69712;42.142;24.766;2024-02-26T02:35:41;12.60;72.90
80234;DHT22;69712;42.142;24.766;2024-02-26T02:38:07;12.50;72.90
80234;DHT22;69712;42.142;24.766;2024-02-26T02:40:33;12.50;72.90
80234;DHT22;69712;42.142;24.766;2024-02-26T02:42:59;12.50;72.70
80234;DHT22;69712;42.142;24.766;2024-02-26T02:45:27;12.50;72.20
80234;DHT22;69712;42.142;24.766;2024-02-26T02:47:53;12.60;71.60
80234;DHT22;69712;42.142;24.766;2024-02-26T02:50:19;12.50;71.10
80234;DHT22;69712;42.142;24.766;2024-02-26T02:52:44;12.40;71.30
80234;DHT22;69712;42.142;24.766;2024-02-26T02:55:10;12.50;71.70
80234;DHT22;69712;42.142;24.766;2024-02-26T02:57:36;12.20;73.10
80234;DHT22;69712;42.142;24.766;2024-02-26T03:00:09;12.00;73.60
80234;DHT22;69712;42.142;24.766;2024-02-26T03:02:35;11.70;75.60
80234;DHT22;69712;42.142;24.766;2024-02-26T03:05:04;11.50;76.70
80234;DHT22;69712;42.142;24.766;2024-02-26T03:07:30;11.40;77.70
80234;DHT22;69712;42.142;24.766;2024-02-26T03:09:55;11.20;78.90
80234;DHT22;69712;42.142;24.766;2024-02-26T03:12:21;11.20;78.60
80234;DHT22;69712;42.142;24.766;2024-02-26T03:14:47;11.40;78.10
80234;DHT22;69712;42.142;24.766;2024-02-26T03:17:13;11.50;77.20
80234;DHT22;69712;42.142;24.766;2024-02-26T03:19:39;11.60;76.60
80234;DHT22;69712;42.142;24.766;2024-02-26T03:22:04;11.70;76.10
80234;DHT22;69712;42.142;24.766;2024-02-26T03:24:30;11.70;76.00
80234;DHT22;69712;42.142;24.766;2024-02-26T03:26:56;11.80;75.50
80234;DHT22;69712;42.142;24.766;2024-02-26T03:29:22;11.80;74.90
80234;DHT22;69712;42.142;24.766;2024-02-26T03:31:48;11.80;76.30
80234;DHT22;69712;42.142;24.766;2024-02-26T03:34:13;11.70;76.70
80234;DHT22;69712;42.142;24.766;2024-02-26T03:36:40;11.60;77.20
80234;DHT22;69712;42.142;24.766;2024-02-26T03:39:06;11.60;76.90
80234;DHT22;69712;42.142;24.766;2024-02-26T03:41:35;11.60;76.50
80234;DHT22;69712;42.142;24.766;2024-02-26T03:44:02;11.60;76.30
80234;DHT22;69712;42.142;24.766;2024-02-26T03:46:28;11.60;76.30
80234;DHT22;69712;42.142;24.766;2024-02-26T03:48:54;11.60;76.50
80234;DHT22;69712;42.142;24.766;2024-02-26T03:51:19;11.70;76.30
80234;DHT22;69712;42.142;24.766;2024-02-26T03:53:45;11.70;76.30
80234;DHT22;69712;42.142;24.766;2024-02-26T03:56:12;11.50;76.70
80234;DHT22;69712;42.142;24.766;2024-02-26T03:58:39;11.30;78.20
80234;DHT22;69712;42.142;24.766;2024-02-26T04:01:07;11.20;78.60
80234;DHT22;69712;42.142;24.766;2024-02-26T04:03:33;11.10;79.20
80234;DHT22;69712;42.142;24.766;2024-02-26T04:05:59;10.70;81.60
80234;DHT22;69712;42.142;24.766;2024-02-26T04:08:24;10.70;81.80
80234;DHT22;69712;42.142;24.766;2024-02-26T04:10:50;10.70;81.70
80234;DHT22;69712;42.142;24.766;2024-02-26T04:13:17;10.70;81.80
80234;DHT22;69712;42.142;24.766;2024-02-26T04:15:44;10.80;81.30
80234;DHT22;69712;42.142;24.766;2024-02-26T04:18:10;10.90;80.40
80234;DHT22;69712;42.142;24.766;2024-02-26T04:20:35;10.80;79.90
80234;DHT22;69712;42.142;24.766;2024-02-26T04:23:02;10.60;80.70
80234;DHT22;69712;42.142;24.766;2024-02-26T04:25:28;10.60;81.20
80234;DHT22;69712;42.142;24.766;2024-02-26T04:27:54;10.60;80.30
80234;DHT22;69712;42.142;24.766;2024-02-26T04:30:20;10.60;80.30
80234;DHT22;69712;42.142;24.766;2024-02-26T04:32:46;10.80;78.80
80234;DHT22;69712;42.142;24.766;2024-02-26T04:35:11;10.80;78.40
80234;DHT22;69712;42.142;24.766;2024-02-26T04:37:37;10.70;78.10
80234;DHT22;69712;42.142;24.766;2024-02-26T04:40:03;10.70;78.10
80234;DHT22;69712;42.142;24.766;2024-02-26T04:42:29;10.80;77.60
80234;DHT22;69712;42.142;24.766;2024-02-26T04:44:55;10.70;77.50
80234;DHT22;69712;42.142;24.766;2024-02-26T04:47:21;10.60;78.50
80234;DHT22;69712;42.142;24.766;2024-02-26T04:49:49;10.50;79.00
80234;DHT22;69712;42.142;24.766;2024-02-26T04:52:15;10.70;78.10
80234;DHT22;69712;42.142;24.766;2024-02-26T04:54:41;10.90;76.80
80234;DHT22;69712;42.142;24.766;2024-02-26T04:57:07;10.90;76.70
80234;DHT22;69712;42.142;24.766;2024-02-26T04:59:32;11.00;75.80
80234;DHT22;69712;42.142;24.766;2024-02-26T05:01:58;11.00;75.30
80234;DHT22;69712;42.142;24.766;2024-02-26T05:04:24;10.90;75.80
80234;DHT22;69712;42.142;24.766;2024-02-26T05:06:50;10.50;77.10
80234;DHT22;69712;42.142;24.766;2024-02-26T05:09:16;10.70;76.90
80234;DHT22;69712;42.142;24.766;2024-02-26T05:11:42;10.90;76.40
80234;DHT22;69712;42.142;24.766;2024-02-26T05:14:08;11.00;75.60
80234;DHT22;69712;42.142;24.766;2024-02-26T05:16:34;11.10;75.40
80234;DHT22;69712;42.142;24.766;2024-02-26T05:18:59;11.10;74.80
80234;DHT22;69712;42.142;24.766;2024-02-26T05:21:25;11.30;74.00
80234;DHT22;69712;42.142;24.766;2024-02-26T05:23:51;11.40;73.30
80234;DHT22;69712;42.142;24.766;2024-02-26T05:26:23;11.30;73.80
80234;DHT22;69712;42.142;24.766;2024-02-26T05:28:49;11.30;73.80
80234;DHT22;69712;42.142;24.766;2024-02-26T05:31:16;11.40;74.00
80234;DHT22;69712;42.142;24.766;2024-02-26T05:33:42;11.40;73.80
80234;DHT22;69712;42.142;24.766;2024-02-26T05:36:08;11.50;73.60
80234;DHT22;69712;42.142;24.766;2024-02-26T05:38:34;11.60;72.80
80234;DHT22;69712;42.142;24.766;2024-02-26T05:41:00;11.80;72.00
80234;DHT22;69712;42.142;24.766;2024-02-26T05:43:26;12.00;71.50
80234;DHT22;69712;42.142;24.766;2024-02-26T05:45:52;12.00;70.90
80234;DHT22;69712;42.142;24.766;2024-02-26T05:48:19;11.80;71.60
80234;DHT22;69712;42.142;24.766;2024-02-26T05:50:45;11.90;71.60
80234;DHT22;69712;42.142;24.766;2024-02-26T05:53:11;12.00;71.90
80234;DHT22;69712;42.142;24.766;2024-02-26T05:55:37;12.10;71.50
80234;DHT22;69712;42.142;24.766;2024-02-26T05:58:03;12.20;71.70
80234;DHT22;69712;42.142;24.766;2024-02-26T06:00:29;12.20;71.10
80234;DHT22;69712;42.142;24.766;2024-02-26T06:02:55;12.20;70.80
80234;DHT22;69712;42.142;24.766;2024-02-26T06:05:21;12.30;70.60
80234;DHT22;69712;42.142;24.766;2024-02-26T06:07:47;12.50;70.10
80234;DHT22;69712;42.142;24.766;2024-02-26T06:10:12;12.60;69.70
80234;DHT22;69712;42.142;24.766;2024-02-26T06:12:39;12.70;69.50
80234;DHT22;69712;42.142;24.766;2024-02-26T06:15:06;12.70;69.40
80234;DHT22;69712;42.142;24.766;2024-02-26T06:17:32;12.60;69.70
80234;DHT22;69712;42.142;24.766;2024-02-26T06:19:58;12.50;69.80
80234;DHT22;69712;42.142;24.766;2024-02-26T06:22:25;12.60;69.60
80234;DHT22;69712;42.142;24.766;2024-02-26T06:24:51;12.70;69.50
80234;DHT22;69712;42.142;24.766;2024-02-26T06:27:17;12.80;69.20
80234;DHT22;69712;42.142;24.766;2024-02-26T06:29:42;12.80;69.70
80234;DHT22;69712;42.142;24.766;2024-02-26T06:32:08;12.90;69.40
80234;DHT22;69712;42.142;24.766;2024-02-26T06:34:34;12.90;69.60
80234;DHT22;69712;42.142;24.766;2024-02-26T06:37:00;12.90;69.40
80234;DHT22;69712;42.142;24.766;2024-02-26T06:39:26;12.80;70.30
80234;DHT22;69712;42.142;24.766;2024-02-26T06:41:52;12.70;69.30
80234;DHT22;69712;42.142;24.766;2024-02-26T06:44:25;12.80;69.80
80234;DHT22;69712;42.142;24.766;2024-02-26T06:46:51;12.70;69.70
80234;DHT22;69712;42.142;24.766;2024-02-26T06:49:17;12.50;71.00
80234;DHT22;69712;42.142;24.766;2024-02-26T06:51:43;12.40;71.30
80234;DHT22;69712;42.142;24.766;2024-02-26T06:54:08;12.30;71.40
80234;DHT22;69712;42.142;24.766;2024-02-26T06:56:35;12.30;71.20
80234;DHT22;69712;42.142;24.766;2024-02-26T06:59:00;12.40;71.00
80234;DHT22;69712;42.142;24.766;2024-02-26T07:01:26;12.40;70.60
80234;DHT22;69712;42.142;24.766;2024-02-26T07:03:52;12.40;70.40
80234;DHT22;69712;42.142;24.766;2024-02-26T07:06:18;12.40;70.70
80234;DHT22;69712;42.142;24.766;2024-02-26T07:08:44;12.50;70.80
80234;DHT22;69712;42.142;24.766;2024-02-26T07:11:10;12.40;70.30
80234;DHT22;69712;42.142;24.766;2024-02-26T07:13:36;12.40;70.40
80234;DHT22;69712;42.142;24.766;2024-02-26T07:16:03;12.60;70.10
80234;DHT22;69712;42.142;24.766;2024-02-26T07:18:29;12.80;69.60
80234;DHT22;69712;42.142;24.766;2024-02-26T07:20:54;13.00;69.00
80234;DHT22;69712;42.142;24.766;2024-02-26T07:23:21;13.10;68.30
80234;DHT22;69712;42.142;24.766;2024-02-26T07:25:47;13.20;68.20
80234;DHT22;69712;42.142;24.766;2024-02-26T07:28:14;13.30;67.30
80234;DHT22;69712;42.142;24.766;2024-02-26T07:30:40;13.40;67.20
80234;DHT22;69712;42.142;24.766;2024-02-26T07:33:06;13.40;67.30
80234;DHT22;69712;42.142;24.766;2024-02-26T07:35:33;13.50;67.40
80234;DHT22;69712;42.142;24.766;2024-02-26T07:37:59;13.50;66.90
80234;DHT22;69712;42.142;24.766;2024-02-26T07:40:25;13.50;67.30
80234;DHT22;69712;42.142;24.766;2024-02-26T07:42:51;13.30;67.70
80234;DHT22;69712;42.142;24.766;2024-02-26T07:45:16;13.40;67.50
80234;DHT22;69712;42.142;24.766;2024-02-26T07:47:46;13.60;66.90
80234;DHT22;69712;42.142;24.766;2024-02-26T07:50:12;13.50;67.00
80234;DHT22;69712;42.142;24.766;2024-02-26T07:52:38;13.60;66.80
80234;DHT22;69712;42.142;24.766;2024-02-26T07:55:05;13.70;66.80
80234;DHT22;69712;42.142;24.766;2024-02-26T07:57:34;13.90;66.80
80234;DHT22;69712;42.142;24.766;2024-02-26T08:00:00;13.80;66.80
80234;DHT22;69712;42.142;24.766;2024-02-26T08:02:26;13.80;66.60
80234;DHT22;69712;42.142;24.766;2024-02-26T08:04:52;13.80;66.70
80234;DHT22;69712;42.142;24.766;2024-02-26T08:07:17;13.70;66.70
80234;DHT22;69712;42.142;24.766;2024-02-26T08:09:43;13.90;66.60
80234;DHT22;69712;42.142;24.766;2024-02-26T08:12:09;13.90;66.50
80234;DHT22;69712;42.142;24.766;2024-02-26T08:14:35;14.00;65.80
80234;DHT22;69712;42.142;24.766;2024-02-26T08:17:00;14.20;65.40
80234;DHT22;69712;42.142;24.766;2024-02-26T08:19:26;14.30;64.70
80234;DHT22;69712;42.142;24.766;2024-02-26T08:21:52;14.40;64.30
80234;DHT22;69712;42.142;24.766;2024-02-26T08:24:18;14.30;64.40
80234;DHT22;69712;42.142;24.766;2024-02-26T08:26:44;14.30;64.80
80234;DHT22;69712;42.142;24.766;2024-02-26T08:29:10;14.40;64.10
80234;DHT22;69712;42.142;24.766;2024-02-26T08:31:36;14.40;64.00
80234;DHT22;69712;42.142;24.766;2024-02-26T08:34:04;14.30;64.10
80234;DHT22;69712;42.142;24.766;2024-02-26T08:36:34;14.00;64.60
80234;DHT22;69712;42.142;24.766;2024-02-26T08:38:59;14.00;64.90
80234;DHT22;69712;42.142;24.766;2024-02-26T08:41:25;14.30;64.30
80234;DHT22;69712;42.142;24.766;2024-02-26T08:43:51;14.60;63.20
80234;DHT22;69712;42.142;24.766;2024-02-26T08:46:17;14.70;62.80
80234;DHT22;69712;42.142;24.766;2024-02-26T08:48:43;14.90;62.80
80234;DHT22;69712;42.142;24.766;2024-02-26T08:51:09;15.00;62.30
80234;DHT22;69712;42.142;24.766;2024-02-26T08:53:36;15.00;61.60
80234;DHT22;69712;42.142;24.766;2024-02-26T08:56:02;15.20;61.20
80234;DHT22;69712;42.142;24.766;2024-02-26T08:58:28;15.30;60.90
80234;DHT22;69712;42.142;24.766;2024-02-26T09:00:54;15.30;60.90
80234;DHT22;69712;42.142;24.766;2024-02-26T09:03:21;15.10;61.00
80234;DHT22;69712;42.142;24.766;2024-02-26T09:05:47;15.10;61.60
80234;DHT22;69712;42.142;24.766;2024-02-26T09:08:13;15.40;61.10
80234;DHT22;69712;42.142;24.766;2024-02-26T09:10:39;15.60;59.90
80234;DHT22;69712;42.142;24.766;2024-02-26T09:13:06;15.80;59.40
80234;DHT22;69712;42.142;24.766;2024-02-26T09:15:31;15.90;58.90
80234;DHT22;69712;42.142;24.766;2024-02-26T09:17:57;16.00;57.90
80234;DHT22;69712;42.142;24.766;2024-02-26T09:20:23;16.00;57.90
80234;DHT22;69712;42.142;24.766;2024-02-26T09:22:49;16.00;57.70
80234;DHT22;69712;42.142;24.766;2024-02-26T09:25:16;16.00;57.40
80234;DHT22;69712;42.142;24.766;2024-02-26T09:27:46;16.00;57.70
80234;DHT22;69712;42.142;24.766;2024-02-26T09:30:12;15.60;58.20
80234;DHT22;69712;42.142;24.766;2024-02-26T09:32:39;15.40;59.20
80234;DHT22;69712;42.142;24.766;2024-02-26T09:35:06;15.60;58.50
80234;DHT22;69712;42.142;24.766;2024-02-26T09:37:32;15.10;59.60
80234;DHT22;69712;42.142;24.766;2024-02-26T09:39:59;15.40;59.20
80234;DHT22;69712;42.142;24.766;2024-02-26T09:42:31;15.70;57.90
80234;DHT22;69712;42.142;24.766;2024-02-26T09:45:00;16.20;56.60
80234;DHT22;69712;42.142;24.766;2024-02-26T09:47:31;16.40;56.20
80234;DHT22;69712;42.142;24.766;2024-02-26T09:49:59;16.70;55.40
80234;DHT22;69712;42.142;24.766;2024-02-26T09:52:28;17.00;54.40
80234;DHT22;69712;42.142;24.766;2024-02-26T09:54:56;16.90;54.50
80234;DHT22;69712;42.142;24.766;2024-02-26T09:57:22;17.00;54.60
80234;DHT22;69712;42.142;24.766;2024-02-26T09:59:51;17.20;54.30
80234;DHT22;69712;42.142;24.766;2024-02-26T10:02:19;17.30;53.90
80234;DHT22;69712;42.142;24.766;2024-02-26T10:04:47;17.00;54.50
80234;DHT22;69712;42.142;24.766;2024-02-26T10:07:13;16.70;55.70
80234;DHT22;69712;42.142;24.766;2024-02-26T10:09:40;16.90;54.50
80234;DHT22;69712;42.142;24.766;2024-02-26T10:12:08;16.90;55.00
80234;DHT22;69712;42.142;24.766;2024-02-26T10:14:35;17.30;52.60
80234;DHT22;69712;42.142;24.766;2024-02-26T10:17:02;17.70;51.40
80234;DHT22;69712;42.142;24.766;2024-02-26T10:19:29;17.90;51.80
80234;DHT22;69712;42.142;24.766;2024-02-26T10:21:59;16.90;54.00
80234;DHT22;69712;42.142;24.766;2024-02-26T10:24:27;17.00;54.30
80234;DHT22;69712;42.142;24.766;2024-02-26T10:26:54;17.60;52.50
80234;DHT22;69712;42.142;24.766;2024-02-26T10:29:21;17.50;51.60
80234;DHT22;69712;42.142;24.766;2024-02-26T10:31:47;17.40;52.00
80234;DHT22;69712;42.142;24.766;2024-02-26T10:34:14;17.40;52.60
80234;DHT22;69712;42.142;24.766;2024-02-26T10:36:41;17.60;53.00
80234;DHT22;69712;42.142;24.766;2024-02-26T10:39:07;18.10;51.10
80234;DHT22;69712;42.142;24.766;2024-02-26T10:41:33;18.20;50.40
80234;DHT22;69712;42.142;24.766;2024-02-26T10:43:59;17.50;51.60
80234;DHT22;69712;42.142;24.766;2024-02-26T10:46:26;17.50;51.30
80234;DHT22;69712;42.142;24.766;2024-02-26T10:48:53;17.10;52.30
80234;DHT22;69712;42.142;24.766;2024-02-26T10:51:28;17.30;53.30
80234;DHT22;69712;42.142;24.766;2024-02-26T10:53:58;17.70;53.00
80234;DHT22;69712;42.142;24.766;2024-02-26T10:56:26;18.10;51.40
80234;DHT22;69712;42.142;24.766;2024-02-26T10:58:55;17.60;51.30
80234;DHT22;69712;42.142;24.766;2024-02-26T11:01:22;17.80;51.40
80234;DHT22;69712;42.142;24.766;2024-02-26T11:03:51;18.30;50.30
80234;DHT22;69712;42.142;24.766;2024-02-26T11:06:19;18.30;50.60
80234;DHT22;69712;42.142;24.766;2024-02-26T11:08:48;18.60;49.10
80234;DHT22;69712;42.142;24.766;2024-02-26T11:11:15;19.10;48.40
80234;DHT22;69712;42.142;24.766;2024-02-26T11:13:43;19.60;48.00
80234;DHT22;69712;42.142;24.766;2024-02-26T11:16:14;19.50;47.10
80234;DHT22;69712;42.142;24.766;2024-02-26T11:18:40;19.70;46.40
80234;DHT22;69712;42.142;24.766;2024-02-26T11:21:07;19.60;46.00
80234;DHT22;69712;42.142;24.766;2024-02-26T11:23:34;19.20;45.80
80234;DHT22;69712;42.142;24.766;2024-02-26T11:26:09;19.00;46.80
80234;DHT22;69712;42.142;24.766;2024-02-26T11:28:37;19.40;47.00
80234;DHT22;69712;42.142;24.766;2024-02-26T11:31:06;19.50;46.20
80234;DHT22;69712;42.142;24.766;2024-02-26T11:33:33;19.70;45.90
80234;DHT22;69712;42.142;24.766;2024-02-26T11:36:02;19.30;45.70
80234;DHT22;69712;42.142;24.766;2024-02-26T11:38:33;18.90;46.80
80234;DHT22;69712;42.142;24.766;2024-02-26T11:40:59;18.50;48.40
80234;DHT22;69712;42.142;24.766;2024-02-26T11:44:00;18.90;47.70
80234;DHT22;69712;42.142;24.766;2024-02-26T11:46:31;19.10;46.40
80234;DHT22;69712;42.142;24.766;2024-02-26T11:51:51;18.20;49.40
80234;DHT22;69712;42.142;24.766;2024-02-26T11:54:53;18.30;48.80
80234;DHT22;69712;42.142;24.766;2024-02-26T11:57:39;17.40;51.60
80234;DHT22;69712;42.142;24.766;2024-02-26T12:00:13;17.40;51.80
80234;DHT22;69712;42.142;24.766;2024-02-26T12:02:46;17.40;51.70
80234;DHT22;69712;42.142;24.766;2024-02-26T12:05:25;17.00;52.40
80234;DHT22;69712;42.142;24.766;2024-02-26T12:08:00;17.60;51.80
80234;DHT22;69712;42.142;24.766;2024-02-26T12:10:41;17.80;51.40
80234;DHT22;69712;42.142;24.766;2024-02-26T12:13:11;18.20;50.40
80234;DHT22;69712;42.142;24.766;2024-02-26T12:15:42;18.70;49.50
80234;DHT22;69712;42.142;24.766;2024-02-26T12:18:10;18.80;48.50
80234;DHT22;69712;42.142;24.766;2024-02-26T12:20:40;18.80;48.60
80234;DHT22;69712;42.142;24.766;2024-02-26T12:23:06;19.00;47.80
80234;DHT22;69712;42.142;24.766;2024-02-26T12:25:33;19.50;46.40
80234;DHT22;69712;42.142;24.766;2024-02-26T12:28:00;20.00;46.10
80234;DHT22;69712;42.142;24.766;2024-02-26T12:30:26;20.40;45.70
80234;DHT22;69712;42.142;24.766;2024-02-26T12:32:55;20.90;44.50
80234;DHT22;69712;42.142;24.766;2024-02-26T12:35:27;20.90;42.70
80234;DHT22;69712;42.142;24.766;2024-02-26T12:37:55;20.50;43.50
80234;DHT22;69712;42.142;24.766;2024-02-26T12:40:22;20.20;45.30
80234;DHT22;69712;42.142;24.766;2024-02-26T12:42:47;20.30;44.30
80234;DHT22;69712;42.142;24.766;2024-02-26T12:45:14;20.10;44.60
80234;DHT22;69712;42.142;24.766;2024-02-26T12:47:42;20.40;44.10
80234;DHT22;69712;42.142;24.766;2024-02-26T12:50:09;20.40;43.40
80234;DHT22;69712;42.142;24.766;2024-02-26T12:52:40;19.10;46.20
80234;DHT22;69712;42.142;24.766;2024-02-26T12:55:06;18.90;46.50
80234;DHT22;69712;42.142;24.766;2024-02-26T12:57:37;19.20;46.40
80234;DHT22;69712;42.142;24.766;2024-02-26T13:00:04;19.30;46.40
80234;DHT22;69712;42.142;24.766;2024-02-26T13:02:31;19.20;45.30
80234;DHT22;69712;42.142;24.766;2024-02-26T13:04:58;18.80;47.30
80234;DHT22;69712;42.142;24.766;2024-02-26T13:07:27;18.10;49.10
80234;DHT22;69712;42.142;24.766;2024-02-26T13:09:53;18.20;49.00
80234;DHT22;69712;42.142;24.766;2024-02-26T13:12:19;18.10;49.30
80234;DHT22;69712;42.142;24.766;2024-02-26T13:14:44;18.20;49.10
80234;DHT22;69712;42.142;24.766;2024-02-26T13:17:10;18.20;49.00
80234;DHT22;69712;42.142;24.766;2024-02-26T13:19:36;18.20;48.50
80234;DHT22;69712;42.142;24.766;2024-02-26T13:22:06;18.50;49.00
80234;DHT22;69712;42.142;24.766;2024-02-26T13:24:33;18.70;48.00
80234;DHT22;69712;42.142;24.766;2024-02-26T13:26:59;18.70;47.50
80234;DHT22;69712;42.142;24.766;2024-02-26T13:29:26;19.00;47.50
80234;DHT22;69712;42.142;24.766;2024-02-26T13:31:58;19.10;46.50
80234;DHT22;69712;42.142;24.766;2024-02-26T13:34:27;19.30;46.00
80234;DHT22;69712;42.142;24.766;2024-02-26T13:36:54;19.50;45.70
80234;DHT22;69712;42.142;24.766;2024-02-26T13:39:27;19.40;46.50
80234;DHT22;69712;42.142;24.766;2024-02-26T13:41:54;18.70;47.10
80234;DHT22;69712;42.142;24.766;2024-02-26T13:44:20;18.50;47.90
80234;DHT22;69712;42.142;24.766;2024-02-26T13:46:49;18.30;48.80
80234;DHT22;69712;42.142;24.766;2024-02-26T13:49:16;17.70;50.30
80234;DHT22;69712;42.142;24.766;2024-02-26T13:51:41;17.70;51.40
80234;DHT22;69712;42.142;24.766;2024-02-26T13:54:07;17.90;50.40
80234;DHT22;69712;42.142;24.766;2024-02-26T13:56:35;17.90;50.90
80234;DHT22;69712;42.142;24.766;2024-02-26T13:59:01;17.60;51.30
80234;DHT22;69712;42.142;24.766;2024-02-26T14:01:27;17.40;51.50
80234;DHT22;69712;42.142;24.766;2024-02-26T14:03:53;17.70;51.20
80234;DHT22;69712;42.142;24.766;2024-02-26T14:06:23;17.90;50.50
80234;DHT22;69712;42.142;24.766;2024-02-26T14:08:49;17.90;50.40
80234;DHT22;69712;42.142;24.766;2024-02-26T14:11:14;17.80;50.80
80234;DHT22;69712;42.142;24.766;2024-02-26T14:13:40;17.80;52.30
80234;DHT22;69712;42.142;24.766;2024-02-26T14:16:06;17.80;50.60
80234;DHT22;69712;42.142;24.766;2024-02-26T14:18:32;18.10;49.80
80234;DHT22;69712;42.142;24.766;2024-02-26T14:20:58;18.30;49.10
80234;DHT22;69712;42.142;24.766;2024-02-26T14:23:23;18.30;48.90
80234;DHT22;69712;42.142;24.766;2024-02-26T14:25:49;18.30;47.80
80234;DHT22;69712;42.142;24.766;2024-02-26T14:28:15;18.00;47.20
80234;DHT22;69712;42.142;24.766;2024-02-26T14:30:41;17.80;48.10
80234;DHT22;69712;42.142;24.766;2024-02-26T14:33:06;17.40;47.50
80234;DHT22;69712;42.142;24.766;2024-02-26T14:35:32;17.00;48.60
80234;DHT22;69712;42.142;24.766;2024-02-26T14:37:58;17.00;49.40
80234;DHT22;69712;42.142;24.766;2024-02-26T14:40:27;16.90;49.00
80234;DHT22;69712;42.142;24.766;2024-02-26T14:42:52;16.90;49.40
80234;DHT22;69712;42.142;24.766;2024-02-26T14:45:18;16.90;49.90
80234;DHT22;69712;42.142;24.766;2024-02-26T14:47:44;17.00;49.60
80234;DHT22;69712;42.142;24.766;2024-02-26T14:50:10;16.70;50.60
80234;DHT22;69712;42.142;24.766;2024-02-26T14:52:36;16.80;50.50
80234;DHT22;69712;42.142;24.766;2024-02-26T14:55:02;16.70;50.70
80234;DHT22;69712;42.142;24.766;2024-02-26T14:57:28;16.80;50.40
80234;DHT22;69712;42.142;24.766;2024-02-26T14:59:54;16.70;50.70
80234;DHT22;69712;42.142;24.766;2024-02-26T15:02:19;16.90;50.30
80234;DHT22;69712;42.142;24.766;2024-02-26T15:04:45;17.10;50.00
80234;DHT22;69712;42.142;24.766;2024-02-26T15:07:11;17.10;49.80
80234;DHT22;69712;42.142;24.766;2024-02-26T15:09:37;17.00;50.10
80234;DHT22;69712;42.142;24.766;2024-02-26T15:12:05;17.00;50.20
80234;DHT22;69712;42.142;24.766;2024-02-26T15:14:34;17.00;50.20
80234;DHT22;69712;42.142;24.766;2024-02-26T15:17:00;16.90;50.50